Time;durP1;ratioP1;P1;durP2;ratioP2;P2;SDS_P1;SDS_P2;PMS_P1;PMS_P2;Temp;Humidity;BMP_temperature;BMP_pressure;BME280_temperature;BME280_humidity;BME280_pressure;Samples;Min_cycle;Max_cycle;Signal;HPM_P1;HPM_P2
2024/04/04 00:01:01;;;;;;;0.50;0.50;;;10.70;99.90;;;;;;5027750;28;19921;-83
2024/04/04 00:03:28;;;;;;;0.77;0.75;;;10.60;99.90;;;;;;4996015;28;20041;-83
2024/04/04 00:05:55;;;;;;;0.20;0.20;;;10.60;99.90;;;;;;4973662;28;20072;-82
2024/04/04 00:08:20;;;;;;;;;;;10.70;99.90;;;;;;5011639;28;20049;-83
2024/04/04 00:10:48;;;;;;;0.57;0.57;;;10.60;99.90;;;;;;4992449;28;19975;-83
2024/04/04 00:13:14;;;;;;;0.30;0.30;;;10.50;99.90;;;;;;5008745;28;20045;-84
2024/04/04 00:15:40;;;;;;;;;;;10.50;99.90;;;;;;4996207;28;20071;-84
2024/04/04 00:18:06;;;;;;;0.52;0.52;;;10.50;99.90;;;;;;5012538;28;19921;-85
2024/04/04 00:20:37;;;;;;;;;;;10.40;99.90;;;;;;5009709;28;20038;-86
2024/04/04 00:23:03;;;;;;;0.30;0.30;;;10.40;99.90;;;;;;5011107;28;20035;-85
2024/04/04 00:25:29;;;;;;;0.50;0.50;;;10.40;99.90;;;;;;5010034;28;20048;-85
2024/04/04 00:27:55;;;;;;;0.40;0.40;;;10.30;99.90;;;;;;4994353;28;20042;-85
2024/04/04 00:30:20;;;;;;;0.40;0.40;;;10.30;99.90;;;;;;5009459;28;20143;-83
2024/04/04 00:32:46;;;;;;;0.40;0.40;;;10.30;99.90;;;;;;4993133;28;20044;-84
2024/04/04 00:35:12;;;;;;;1.75;1.65;;;10.30;99.90;;;;;;4994739;28;20120;-84
2024/04/04 00:37:38;;;;;;;0.40;0.40;;;10.20;99.90;;;;;;5010201;28;20124;-83
2024/04/04 00:40:05;;;;;;;0.40;0.40;;;10.30;99.90;;;;;;5011947;28;20041;-82
2024/04/04 00:42:31;;;;;;;0.40;0.40;;;10.40;99.90;;;;;;4994570;28;20048;-82
2024/04/04 00:44:57;;;;;;;3.13;1.40;;;10.40;99.90;;;;;;4993706;28;20407;-82
2024/04/04 00:47:23;;;;;;;0.40;0.40;;;10.30;99.90;;;;;;5010647;28;20042;-82
2024/04/04 00:49:49;;;;;;;0.40;0.40;;;10.30;99.90;;;;;;4994073;28;20038;-82
2024/04/04 00:52:15;;;;;;;1.38;0.85;;;10.40;99.90;;;;;;4978369;28;20128;-82
2024/04/04 00:54:42;;;;;;;0.40;0.40;;;10.40;99.90;;;;;;4994122;28;20040;-82
2024/04/04 00:57:09;;;;;;;0.40;0.40;;;10.50;99.90;;;;;;5010393;28;20045;-81
2024/04/04 00:59:36;;;;;;;0.40;0.40;;;10.50;99.90;;;;;;4993576;28;20045;-82
2024/04/04 01:02:02;;;;;;;0.43;0.40;;;10.40;99.90;;;;;;5010691;28;20043;-82
2024/04/04 01:04:28;;;;;;;;;;;10.50;99.90;;;;;;4993174;28;20123;-82
2024/04/04 01:06:54;;;;;;;0.50;0.50;;;10.50;99.90;;;;;;5020974;28;20007;-82
2024/04/04 01:09:20;;;;;;;0.50;0.50;;;10.40;99.90;;;;;;4986569;28;20420;-81
2024/04/04 01:11:45;;;;;;;0.30;0.30;;;10.50;99.90;;;;;;4991376;28;20129;-82
2024/04/04 01:14:13;;;;;;;0.43;0.43;;;10.50;99.90;;;;;;4993709;28;20474;-82
2024/04/04 01:16:39;;;;;;;0.52;0.52;;;10.40;99.90;;;;;;5009337;28;20037;-82
2024/04/04 01:19:04;;;;;;;0.65;0.65;;;10.50;99.90;;;;;;4995121;28;20034;-82
2024/04/04 01:21:30;;;;;;;0.30;0.30;;;10.50;99.90;;;;;;4992895;28;20038;-82
2024/04/04 01:23:56;;;;;;;0.80;0.80;;;10.40;99.90;;;;;;4992097;28;20461;-83
2024/04/04 01:26:22;;;;;;;0.50;0.50;;;10.50;99.90;;;;;;5011200;28;20129;-83
2024/04/04 01:28:47;;;;;;;0.40;0.40;;;10.40;99.90;;;;;;4990884;28;20041;-82
2024/04/04 01:31:14;;;;;;;0.75;0.75;;;10.40;99.90;;;;;;4994524;28;20033;-81
2024/04/04 01:33:40;;;;;;;0.60;0.60;;;10.40;99.90;;;;;;5008724;28;20049;-81
2024/04/04 01:36:07;;;;;;;0.30;0.30;;;10.70;99.90;;;;;;5010324;28;20136;-83
2024/04/04 01:38:33;;;;;;;0.40;0.40;;;10.30;99.90;;;;;;4992564;28;20472;-84
2024/04/04 01:40:58;;;;;;;0.40;0.40;;;10.30;99.90;;;;;;4993981;28;20040;-82
2024/04/04 01:43:24;;;;;;;0.73;0.70;;;10.30;99.90;;;;;;5024076;28;20042;-82
2024/04/04 01:45:50;;;;;;;0.60;0.60;;;10.20;99.90;;;;;;4993017;28;20081;-81
2024/04/04 01:48:15;;;;;;;0.60;0.60;;;10.20;99.90;;;;;;4994572;28;20057;-82
2024/04/04 01:50:41;;;;;;;0.50;0.50;;;10.20;99.90;;;;;;4993407;28;20068;-81
2024/04/04 01:53:07;;;;;;;0.30;0.30;;;10.30;99.90;;;;;;4988799;28;20096;-82
2024/04/04 01:55:33;;;;;;;0.60;0.60;;;10.20;99.90;;;;;;5008381;28;20087;-84
2024/04/04 01:58:00;;;;;;;0.40;0.40;;;10.20;99.90;;;;;;4992352;28;20486;-83
2024/04/04 02:00:28;;;;;;;1.45;1.33;;;10.20;99.90;;;;;;4993942;28;20042;-82
2024/04/04 02:02:54;;;;;;;0.68;0.68;;;10.10;99.90;;;;;;5006856;28;20549;-81
2024/04/04 02:05:20;;;;;;;0.75;0.75;;;10.10;99.90;;;;;;4993799;28;20045;-82
2024/04/04 02:07:46;;;;;;;0.73;0.73;;;10.00;99.90;;;;;;5008662;28;20107;-82
2024/04/04 02:10:12;;;;;;;9.93;0.85;;;9.90;99.90;;;;;;5007726;28;20515;-81
2024/04/04 02:12:38;;;;;;;0.77;0.77;;;9.90;99.90;;;;;;5010268;28;20038;-81
2024/04/04 02:15:04;;;;;;;;;;;9.80;99.90;;;;;;5011120;28;20192;-81
2024/04/04 02:17:30;;;;;;;1.38;0.63;;;9.80;99.90;;;;;;4992660;28;19923;-82
2024/04/04 02:19:56;;;;;;;0.45;0.45;;;9.80;99.90;;;;;;5025031;28;20084;-82
2024/04/04 02:22:22;;;;;;;0.40;0.40;;;9.70;99.90;;;;;;4992621;28;20045;-82
2024/04/04 02:24:48;;;;;;;0.55;0.55;;;9.70;99.90;;;;;;4992667;28;20514;-81
2024/04/04 02:27:14;;;;;;;0.47;0.47;;;9.70;99.90;;;;;;5005390;28;20045;-80
2024/04/04 02:29:43;;;;;;;0.38;0.38;;;9.70;99.90;;;;;;4991534;28;20045;-82
2024/04/04 02:32:10;;;;;;;0.50;0.50;;;9.80;99.90;;;;;;5029685;28;20084;-82
2024/04/04 02:34:35;;;;;;;0.30;0.30;;;9.80;99.90;;;;;;4995207;28;20029;-79
2024/04/04 02:37:01;;;;;;;0.43;0.43;;;9.80;99.90;;;;;;4997431;28;20048;-81
2024/04/04 02:39:28;;;;;;;1.55;0.70;;;9.80;99.90;;;;;;4996117;28;20497;-81
2024/04/04 02:41:54;;;;;;;0.40;0.40;;;10.60;99.90;;;;;;5026880;28;21263;-83
2024/04/04 02:44:20;;;;;;;1.80;1.70;;;10.80;99.90;;;;;;4996596;28;20033;-82
2024/04/04 02:46:46;;;;;;;0.98;0.80;;;9.80;99.90;;;;;;5011600;28;20054;-83
2024/04/04 02:49:12;;;;;;;1.95;0.98;;;9.70;99.90;;;;;;5014073;28;20042;-89
2024/04/04 02:51:37;;;;;;;0.30;0.30;;;9.70;99.90;;;;;;5016498;28;20133;-89
2024/04/04 02:54:04;;;;;;;2.40;1.10;;;9.70;99.90;;;;;;4998183;28;20033;-88
2024/04/04 02:56:30;;;;;;;1.38;1.38;;;9.60;99.90;;;;;;4998239;28;20041;-87
2024/04/04 02:58:56;;;;;;;0.50;0.50;;;9.60;99.90;;;;;;5013338;28;20110;-87
2024/04/04 03:01:22;;;;;;;1.00;1.00;;;9.50;99.90;;;;;;4998575;28;20037;-86
2024/04/04 03:03:48;;;;;;;0.32;0.32;;;9.80;99.90;;;;;;5030908;28;20075;-85
2024/04/04 03:06:18;;;;;;;0.60;0.60;;;10.00;99.90;;;;;;5014796;28;20037;-87
2024/04/04 03:08:44;;;;;;;0.30;0.30;;;9.20;99.90;;;;;;5030070;28;20042;-86
2024/04/04 03:11:11;;;;;;;0.52;0.52;;;9.30;99.90;;;;;;5012939;28;20049;-87
2024/04/04 03:13:37;;;;;;;;;;;9.00;99.90;;;;;;5013728;28;20387;-87
2024/04/04 03:16:03;;;;;;;4.10;2.78;;;8.90;99.90;;;;;;4995491;28;19917;-88
2024/04/04 03:18:29;;;;;;;0.52;0.52;;;8.90;99.90;;;;;;5015969;28;20094;-88
2024/04/04 03:20:55;;;;;;;0.50;0.50;;;8.80;99.90;;;;;;5000879;28;20033;-87
2024/04/04 03:23:20;;;;;;;0.40;0.40;;;8.80;99.90;;;;;;5008287;28;20045;-86
2024/04/04 03:25:46;;;;;;;0.70;0.70;;;8.80;99.90;;;;;;5028882;28;20045;-87
2024/04/04 03:28:12;;;;;;;0.43;0.43;;;8.70;99.90;;;;;;5030200;28;20045;-89
2024/04/04 03:30:39;;;;;;;0.40;0.40;;;8.70;99.90;;;;;;5029741;28;20030;-90
2024/04/04 03:33:04;;;;;;;0.50;0.50;;;8.70;99.90;;;;;;5034516;28;20046;-93
2024/04/04 03:35:30;;;;;;;0.40;0.40;;;8.60;99.90;;;;;;5017841;28;20033;-90
2024/04/04 03:37:56;;;;;;;0.47;0.47;;;8.50;99.90;;;;;;5014356;28;20037;-89
2024/04/04 03:40:21;;;;;;;0.40;0.40;;;8.50;99.90;;;;;;5028302;28;20072;-89
2024/04/04 03:42:47;;;;;;;0.55;0.55;;;8.50;99.90;;;;;;5032252;28;20521;-89
2024/04/04 03:45:13;;;;;;;0.40;0.40;;;8.50;99.90;;;;;;5029474;28;20509;-90
2024/04/04 03:47:39;;;;;;;0.50;0.50;;;8.40;99.90;;;;;;5015175;28;20107;-89
2024/04/04 03:50:05;;;;;;;2.28;0.98;;;8.40;99.90;;;;;;5016883;28;20506;-91
2024/04/04 03:52:31;;;;;;;0.60;0.60;;;8.40;99.90;;;;;;5053859;28;20021;-92
2024/04/04 03:54:57;;;;;;;;;;;8.30;99.90;;;;;;5056395;28;20036;-92
2024/04/04 03:57:23;;;;;;;0.57;0.57;;;8.30;99.90;;;;;;5042026;28;19925;-88
2024/04/04 03:59:49;;;;;;;0.80;0.80;;;8.60;99.90;;;;;;5011719;28;20153;-83
2024/04/04 04:02:15;;;;;;;;;;;8.40;99.90;;;;;;5010946;28;20057;-84
2024/04/04 04:04:41;;;;;;;0.57;0.57;;;8.30;99.90;;;;;;5012097;28;19917;-81
2024/04/04 04:07:06;;;;;;;0.30;0.30;;;8.30;99.90;;;;;;5012112;28;20099;-83
2024/04/04 04:09:32;;;;;;;1.25;0.93;;;7.70;99.90;;;;;;5030036;28;20517;-83
2024/04/04 04:11:58;;;;;;;0.40;0.40;;;8.60;99.90;;;;;;5010934;28;20045;-80
2024/04/04 04:14:24;;;;;;;0.50;0.50;;;8.60;99.90;;;;;;5026964;28;20041;-80
2024/04/04 04:16:49;;;;;;;0.40;0.40;;;8.20;99.90;;;;;;4993045;28;20100;-82
2024/04/04 04:19:15;;;;;;;0.50;0.50;;;8.20;99.90;;;;;;4994950;28;20041;-81
2024/04/04 04:21:41;;;;;;;0.40;0.40;;;8.40;99.90;;;;;;5029454;28;20048;-82
2024/04/04 04:24:07;;;;;;;0.60;0.60;;;8.20;99.90;;;;;;5010796;28;20045;-81
2024/04/04 04:26:32;;;;;;;0.50;0.50;;;8.20;99.90;;;;;;5026517;28;20479;-80
2024/04/04 04:28:59;;;;;;;0.50;0.50;;;8.30;99.90;;;;;;5025672;28;20048;-82
2024/04/04 04:31:29;;;;;;;0.60;0.60;;;8.30;99.90;;;;;;5010191;28;20075;-82
2024/04/04 04:33:57;;;;;;;0.50;0.50;;;8.30;99.90;;;;;;5026234;28;20037;-82
2024/04/04 04:36:27;;;;;;;1.33;1.33;;;8.40;99.90;;;;;;5028448;28;20045;-83
2024/04/04 04:38:53;;;;;;;1.00;1.00;;;8.40;99.90;;;;;;5009708;28;20132;-83
2024/04/04 04:41:19;;;;;;;0.50;0.50;;;8.40;99.90;;;;;;5024636;28;20113;-82
2024/04/04 04:43:46;;;;;;;2.17;1.08;;;8.40;99.90;;;;;;5028198;28;20045;-83
2024/04/04 04:46:18;;;;;;;0.45;0.45;;;8.50;99.90;;;;;;5027603;28;20029;-83
2024/04/04 04:48:45;;;;;;;0.55;0.55;;;8.50;99.90;;;;;;5008713;28;20044;-84
2024/04/04 04:51:11;;;;;;;0.40;0.40;;;8.50;99.90;;;;;;5024808;28;20751;-83
2024/04/04 04:53:37;;;;;;;0.50;0.50;;;8.50;99.90;;;;;;5024210;28;20056;-82
2024/04/04 04:56:04;;;;;;;0.60;0.60;;;8.50;99.90;;;;;;5025574;28;20109;-82
2024/04/04 04:58:30;;;;;;;0.47;0.47;;;8.50;99.90;;;;;;5024989;28;20049;-84
2024/04/04 05:00:56;;;;;;;0.40;0.40;;;8.70;99.90;;;;;;5027911;28;20050;-83
2024/04/04 05:03:23;;;;;;;0.45;0.45;;;8.50;99.90;;;;;;5027195;28;20407;-83
2024/04/04 05:05:52;;;;;;;5.43;2.40;;;8.50;99.90;;;;;;5028052;28;20057;-83
2024/04/04 05:08:19;;;;;;;0.60;0.60;;;8.50;99.90;;;;;;5026978;28;20204;-84
2024/04/04 05:10:45;;;;;;;0.40;0.40;;;8.60;99.90;;;;;;5024642;28;20080;-83
2024/04/04 05:13:11;;;;;;;0.40;0.40;;;8.60;99.90;;;;;;5010417;28;20049;-83
2024/04/04 05:15:45;;;;;;;0.40;0.40;;;9.00;99.90;;;;;;5023839;28;20372;-82
2024/04/04 05:18:11;;;;;;;0.40;0.40;;;8.60;99.90;;;;;;5007869;28;20181;-83
2024/04/04 05:20:37;;;;;;;1.30;1.30;;;8.60;99.90;;;;;;4994339;28;20033;-83
2024/04/04 05:23:03;;;;;;;;;;;8.60;99.90;;;;;;4994038;28;20045;-83
2024/04/04 05:25:28;;;;;;;0.95;0.95;;;8.60;99.90;;;;;;5010460;28;19933;-83
2024/04/04 05:27:54;;;;;;;0.50;0.50;;;8.60;99.90;;;;;;5009472;28;20050;-82
2024/04/04 05:30:20;;;;;;;0.40;0.40;;;8.70;99.90;;;;;;4994071;28;20430;-84
2024/04/04 05:32:46;;;;;;;0.50;0.50;;;8.60;99.90;;;;;;5009565;28;20093;-83
2024/04/04 05:35:14;;;;;;;0.30;0.30;;;8.90;99.90;;;;;;5008790;28;20483;-80
2024/04/04 05:37:40;;;;;;;1.98;1.88;;;9.50;99.90;;;;;;5022867;28;20061;-80
2024/04/04 05:40:07;;;;;;;0.45;0.45;;;8.70;99.90;;;;;;5010278;28;20033;-82
2024/04/04 05:42:33;;;;;;;0.40;0.40;;;8.70;99.90;;;;;;5010554;28;20079;-82
2024/04/04 05:44:59;;;;;;;;;;;8.70;99.90;;;;;;4994484;28;20124;-81
2024/04/04 05:47:25;;;;;;;0.40;0.40;;;8.70;99.90;;;;;;5009445;28;19975;-81
2024/04/04 05:49:50;;;;;;;0.40;0.40;;;8.70;99.90;;;;;;5025745;28;20041;-81
2024/04/04 05:52:16;;;;;;;0.50;0.50;;;8.80;99.90;;;;;;4982966;28;20445;-81
2024/04/04 05:54:46;;;;;;;0.50;0.50;;;8.80;99.90;;;;;;5020298;28;20128;-82
2024/04/04 05:57:11;;;;;;;0.40;0.40;;;8.80;99.90;;;;;;5019465;28;20132;-82
2024/04/04 05:59:37;;;;;;;0.40;0.40;;;8.90;99.90;;;;;;5039224;28;20133;-82
2024/04/04 06:02:03;;;;;;;0.55;0.55;;;8.90;99.90;;;;;;5019896;28;20072;-82
2024/04/04 06:04:29;;;;;;;0.50;0.50;;;8.90;99.90;;;;;;5031327;28;20521;-79
2024/04/04 06:06:55;;;;;;;0.65;0.65;;;9.10;99.90;;;;;;5032467;28;20045;-82
2024/04/04 06:09:21;;;;;;;0.40;0.40;;;9.00;99.90;;;;;;5031125;28;20049;-82
2024/04/04 06:11:46;;;;;;;0.40;0.40;;;9.00;99.90;;;;;;5032911;28;20560;-81
2024/04/04 06:14:12;;;;;;;0.40;0.40;;;9.00;99.90;;;;;;5015090;28;20045;-82
2024/04/04 06:16:39;;;;;;;0.40;0.40;;;9.00;99.90;;;;;;5035117;28;20096;-82
2024/04/04 06:19:04;;;;;;;0.40;0.40;;;9.00;99.90;;;;;;5001154;28;20557;-90
2024/04/04 06:21:30;;;;;;;0.30;0.30;;;9.00;99.90;;;;;;5050622;28;20048;-88
2024/04/04 06:23:56;;;;;;;0.50;0.50;;;9.10;99.90;;;;;;5003209;28;20056;-88
2024/04/04 06:26:25;;;;;;;0.40;0.40;;;9.10;99.90;;;;;;5010770;28;20033;-89
2024/04/04 06:28:53;;;;;;;0.40;0.40;;;9.10;99.90;;;;;;5019765;28;20037;-90
2024/04/04 06:31:19;;;;;;;0.30;0.30;;;9.10;99.90;;;;;;5000421;28;20096;-90
2024/04/04 06:33:44;;;;;;;;;;;9.20;99.90;;;;;;5017458;28;20042;-88
2024/04/04 06:36:10;;;;;;;0.40;0.40;;;9.20;99.90;;;;;;5031802;28;20464;-86
2024/04/04 06:38:36;;;;;;;0.60;0.60;;;9.20;99.90;;;;;;5031713;28;20053;-85
2024/04/04 06:41:01;;;;;;;0.60;0.60;;;9.20;99.90;;;;;;5036687;28;20060;-84
2024/04/04 06:43:27;;;;;;;0.32;0.32;;;9.20;99.90;;;;;;5015573;28;20048;-86
2024/04/04 06:45:53;;;;;;;;;;;9.20;99.90;;;;;;5038811;28;20038;-83
2024/04/04 06:48:19;;;;;;;0.40;0.40;;;9.20;99.90;;;;;;5020068;28;20287;-80
2024/04/04 06:50:45;;;;;;;0.40;0.40;;;9.20;99.90;;;;;;5037864;28;20040;-84
2024/04/04 06:53:10;;;;;;;;;;;9.20;99.90;;;;;;5015945;28;20144;-84
2024/04/04 06:55:37;;;;;;;0.50;0.50;;;9.20;99.90;;;;;;5036148;28;19943;-83
2024/04/04 06:58:03;;;;;;;0.55;0.55;;;9.20;99.90;;;;;;5032055;28;20045;-84
2024/04/04 07:00:29;;;;;;;;;;;9.30;99.90;;;;;;5033565;28;20041;-84
2024/04/04 07:02:54;;;;;;;0.30;0.30;;;9.30;99.90;;;;;;5037502;28;19921;-85
2024/04/04 07:05:20;;;;;;;0.40;0.40;;;9.30;99.90;;;;;;5023610;28;20052;-86
2024/04/04 07:07:46;;;;;;;0.40;0.40;;;9.20;99.90;;;;;;5012669;28;20444;-85
2024/04/04 07:10:12;;;;;;;0.30;0.30;;;9.20;99.90;;;;;;5031506;28;20046;-83
2024/04/04 07:12:37;;;;;;;0.40;0.40;;;9.20;99.90;;;;;;5029232;28;20045;-85
2024/04/04 07:15:03;;;;;;;0.50;0.50;;;9.30;99.90;;;;;;5034010;28;20457;-86
2024/04/04 07:17:29;;;;;;;0.50;0.50;;;9.30;99.90;;;;;;5029561;28;20631;-84
2024/04/04 07:19:56;;;;;;;0.40;0.40;;;9.30;99.90;;;;;;5013637;28;20379;-84
2024/04/04 07:22:22;;;;;;;0.60;0.60;;;9.30;99.90;;;;;;5030039;28;20037;-84
2024/04/04 07:24:48;;;;;;;0.43;0.43;;;9.30;99.90;;;;;;5030148;28;20475;-84
2024/04/04 07:27:14;;;;;;;;;;;9.30;99.90;;;;;;5034599;28;20128;-84
2024/04/04 07:29:42;;;;;;;5.78;0.80;;;9.70;99.90;;;;;;5032391;28;20015;-83
2024/04/04 07:32:08;;;;;;;0.43;0.43;;;9.30;99.90;;;;;;5030416;28;20396;-84
2024/04/04 07:34:35;;;;;;;0.40;0.40;;;9.40;99.90;;;;;;5031136;28;20041;-84
2024/04/04 07:37:00;;;;;;;0.50;0.50;;;9.50;99.90;;;;;;5032950;28;20559;-83
2024/04/04 07:39:26;;;;;;;0.38;0.38;;;9.50;99.90;;;;;;5030788;28;20042;-81
2024/04/04 07:41:52;;;;;;;;;;;9.60;99.90;;;;;;5030015;28;20172;-81
2024/04/04 07:44:18;;;;;;;0.85;0.85;;;9.80;99.90;;;;;;5027110;28;20012;-80
2024/04/04 07:46:44;;;;;;;0.40;0.40;;;9.90;99.90;;;;;;5029959;28;20041;-80
2024/04/04 07:49:09;;;;;;;0.30;0.30;;;10.00;99.90;;;;;;5037229;28;20045;-81
2024/04/04 07:51:36;;;;;;;0.45;0.45;;;10.20;99.90;;;;;;5031998;28;20037;-82
2024/04/04 07:54:03;;;;;;;0.43;0.43;;;10.20;99.90;;;;;;5028137;28;20033;-83
2024/04/04 07:56:29;;;;;;;0.40;0.40;;;10.20;99.90;;;;;;4974681;28;20510;-83
2024/04/04 07:58:55;;;;;;;0.57;0.57;;;10.30;99.90;;;;;;5027162;28;20057;-83
2024/04/04 08:01:21;;;;;;;0.47;0.47;;;10.20;99.90;;;;;;5028545;28;20167;-83
2024/04/04 08:03:49;;;;;;;0.50;0.50;;;10.10;99.90;;;;;;5029092;28;20041;-83
2024/04/04 08:06:15;;;;;;;0.70;0.70;;;10.10;99.90;;;;;;5027786;28;20063;-84
2024/04/04 08:08:41;;;;;;;;;;;10.10;99.90;;;;;;5010526;28;20511;-84
2024/04/04 08:11:08;;;;;;;0.50;0.50;;;10.20;99.90;;;;;;5010858;28;20011;-84
2024/04/04 08:13:34;;;;;;;0.40;0.40;;;10.60;99.90;;;;;;5028797;28;20072;-84
2024/04/04 08:16:00;;;;;;;0.30;0.30;;;10.20;99.90;;;;;;4997656;28;20072;-83
2024/04/04 08:18:25;;;;;;;0.40;0.40;;;10.20;99.90;;;;;;5022904;28;20103;-84
2024/04/04 08:20:51;;;;;;;0.38;0.38;;;10.20;99.90;;;;;;5014260;28;20111;-84
2024/04/04 08:23:17;;;;;;;0.40;0.40;;;10.20;99.90;;;;;;5028940;28;20047;-84
2024/04/04 08:25:56;;;;;;;1.10;0.68;;;10.20;99.90;;;;;;5028629;28;20496;-84
2024/04/04 08:28:22;;;;;;;0.40;0.40;;;10.20;99.90;;;;;;5027826;28;20111;-84
2024/04/04 08:30:57;;;;;;;;;;;10.10;99.90;;;;;;5026802;28;20111;-84
2024/04/04 08:33:24;;;;;;;0.40;0.40;;;10.20;99.90;;;;;;5027348;28;19971;-83
2024/04/04 08:35:50;;;;;;;0.40;0.40;;;10.20;99.90;;;;;;5028419;28;20045;-83
2024/04/04 08:38:16;;;;;;;0.40;0.40;;;10.20;99.90;;;;;;5030563;28;20402;-83
2024/04/04 08:40:42;;;;;;;0.40;0.40;;;10.20;99.90;;;;;;5035096;28;20037;-83
2024/04/04 08:43:09;;;;;;;0.70;0.70;;;10.20;99.90;;;;;;5038241;28;20487;-83
2024/04/04 08:45:49;;;;;;;0.90;0.77;;;10.30;99.90;;;;;;5034781;28;20099;-84
2024/04/04 08:48:19;;;;;;;0.50;0.50;;;10.30;99.90;;;;;;5028351;28;20041;-83
2024/04/04 08:50:47;;;;;;;0.50;0.40;;;10.30;99.90;;;;;;4999359;28;20042;-84
2024/04/04 08:53:22;;;;;;;0.50;0.50;;;10.30;99.90;;;;;;5035005;28;20055;-82
2024/04/04 08:55:56;;;;;;;0.50;0.50;;;10.40;99.90;;;;;;5033594;28;20399;-84
2024/04/04 08:58:23;;;;;;;1.10;1.10;;;10.40;99.90;;;;;;5026372;28;20057;-82
2024/04/04 09:00:50;;;;;;;0.40;0.40;;;10.50;99.90;;;;;;5016138;28;20064;-83
2024/04/04 09:03:16;;;;;;;2.15;0.70;;;10.50;99.90;;;;;;5002510;28;20478;-83
2024/04/04 09:05:44;;;;;;;0.45;0.45;;;10.60;99.90;;;;;;5003194;28;20045;-85
2024/04/04 09:08:10;;;;;;;1.08;0.60;;;10.60;99.90;;;;;;5009988;28;20168;-85
2024/04/04 09:10:36;;;;;;;0.57;0.57;;;10.70;99.90;;;;;;5036656;28;20135;-84
2024/04/04 09:13:07;;;;;;;0.40;0.40;;;10.70;99.90;;;;;;5036540;28;20049;-86
2024/04/04 09:15:37;;;;;;;0.77;0.77;;;10.80;99.90;;;;;;5027667;28;20041;-85
2024/04/04 09:18:08;;;;;;;0.50;0.50;;;10.80;99.90;;;;;;5036512;28;20041;-83
2024/04/04 09:20:39;;;;;;;0.82;0.82;;;10.80;99.90;;;;;;5012739;28;20069;-84
2024/04/04 09:23:10;;;;;;;0.32;0.32;;;10.90;99.90;;;;;;5026228;28;20037;-84
2024/04/04 09:25:37;;;;;;;0.80;0.80;;;10.90;99.90;;;;;;5027408;28;20059;-84
2024/04/04 09:28:09;;;;;;;0.40;0.40;;;11.00;99.90;;;;;;5018383;28;20044;-83
2024/04/04 09:30:36;;;;;;;0.40;0.40;;;11.20;99.90;;;;;;5010844;28;20557;-84
2024/04/04 09:33:05;;;;;;;0.65;0.65;;;11.20;99.90;;;;;;5016033;28;20494;-83
2024/04/04 09:35:31;;;;;;;0.63;0.63;;;11.30;99.90;;;;;;5030939;28;20491;-83
2024/04/04 09:37:59;;;;;;;1.55;0.63;;;11.30;99.90;;;;;;5036771;28;20120;-84
2024/04/04 09:40:25;;;;;;;1.30;0.68;;;11.30;99.90;;;;;;5034338;28;20084;-84
2024/04/04 09:42:51;;;;;;;1.15;1.05;;;11.40;99.90;;;;;;5035681;28;20045;-81
2024/04/04 09:45:17;;;;;;;0.40;0.40;;;11.40;99.90;;;;;;5033241;28;20056;-83
2024/04/04 09:47:45;;;;;;;0.40;0.40;;;11.50;99.90;;;;;;5035112;28;20045;-84
2024/04/04 09:50:15;;;;;;;0.77;0.77;;;11.60;99.90;;;;;;5033250;28;20499;-84
2024/04/04 09:52:40;;;;;;;1.27;0.60;;;11.50;99.90;;;;;;5033020;28;20120;-85
2024/04/04 09:55:12;;;;;;;0.68;0.68;;;11.50;99.90;;;;;;5035574;28;20120;-83
2024/04/04 09:57:42;;;;;;;0.40;0.40;;;11.50;99.90;;;;;;5032625;28;20049;-83
2024/04/04 10:00:19;;;;;;;1.75;0.77;;;11.50;99.90;;;;;;5032212;28;20038;-82
2024/04/04 10:02:48;;;;;;;0.50;0.50;;;11.50;99.90;;;;;;5029970;28;20053;-83
2024/04/04 10:05:16;;;;;;;1.65;0.65;;;11.50;99.90;;;;;;5033634;28;20041;-84
2024/04/04 10:07:41;;;;;;;0.60;0.60;;;11.60;99.90;;;;;;5033625;28;20568;-82
2024/04/04 10:10:21;;;;;;;1.58;1.48;;;11.60;99.90;;;;;;5033935;28;20041;-82
2024/04/04 10:12:53;;;;;;;0.32;0.32;;;11.60;99.90;;;;;;5034238;28;20049;-84
2024/04/04 10:15:21;;;;;;;0.43;0.43;;;11.50;99.90;;;;;;5034467;28;20076;-82
2024/04/04 10:17:51;;;;;;;0.60;0.60;;;11.50;99.90;;;;;;5015311;28;20057;-82
2024/04/04 10:20:18;;;;;;;0.52;0.52;;;11.50;99.90;;;;;;5016979;28;20048;-82
2024/04/04 10:22:44;;;;;;;0.40;0.40;;;11.50;99.90;;;;;;5034079;28;20044;-82
2024/04/04 10:25:10;;;;;;;0.60;0.60;;;11.40;99.90;;;;;;5038378;28;20049;-83
2024/04/04 10:27:37;;;;;;;0.40;0.40;;;11.40;99.90;;;;;;5034263;28;20045;-82
2024/04/04 10:30:03;;;;;;;0.38;0.38;;;11.40;99.90;;;;;;5052356;28;20124;-86
2024/04/04 10:32:29;;;;;;;;;;;11.40;99.90;;;;;;5023294;28;20171;-89
2024/04/04 10:35:05;;;;;;;0.52;0.52;;;11.30;99.90;;;;;;5047010;28;19956;-88
2024/04/04 10:37:31;;;;;;;0.40;0.40;;;11.40;99.90;;;;;;5045804;28;20038;-90
2024/04/04 10:39:57;;;;;;;0.47;0.47;;;11.40;99.90;;;;;;5046788;28;20094;-89
2024/04/04 10:42:24;;;;;;;0.60;0.60;;;11.40;99.90;;;;;;5046082;28;20040;-90
2024/04/04 10:44:54;;;;;;;0.40;0.40;;;11.50;99.90;;;;;;5054160;28;20049;-95
2024/04/04 10:47:27;;;;;;;0.50;0.50;;;11.60;99.90;;;;;;5027783;28;20033;-95
2024/04/04 10:49:53;;;;;;;0.40;0.40;;;11.80;99.90;;;;;;5035186;28;20045;-92
2024/04/04 10:52:19;;;;;;;0.50;0.50;;;12.10;99.90;;;;;;5032459;28;20064;-91
2024/04/04 10:54:45;;;;;;;;;;;12.30;99.90;;;;;;5012033;28;20467;-92
2024/04/04 10:57:11;;;;;;;0.40;0.40;;;12.50;99.90;;;;;;5010763;28;19979;-94
2024/04/04 10:59:37;;;;;;;0.52;0.52;;;12.60;99.90;;;;;;5025202;28;20471;-96
2024/04/04 11:02:04;;;;;;;1.45;1.40;;;12.60;99.90;;;;;;5028261;28;20044;-91
2024/04/04 11:04:32;;;;;;;0.40;0.40;;;12.60;99.90;;;;;;5042545;28;20066;-89
2024/04/04 11:06:58;;;;;;;0.40;0.40;;;12.50;99.90;;;;;;5045298;28;20041;-88
2024/04/04 11:09:26;;;;;;;0.47;0.47;;;12.50;99.90;;;;;;5045287;28;20033;-89
2024/04/04 11:11:56;;;;;;;0.52;0.52;;;12.50;99.90;;;;;;5041333;28;20096;-90
2024/04/04 11:14:25;;;;;;;0.40;0.40;;;12.50;99.90;;;;;;5033647;28;20055;-87
2024/04/04 11:16:54;;;;;;;0.30;0.30;;;12.60;99.90;;;;;;5023297;28;20052;-87
2024/04/04 11:19:23;;;;;;;0.30;0.30;;;12.80;99.90;;;;;;5038390;28;20034;-86
2024/04/04 11:21:50;;;;;;;0.40;0.40;;;12.80;99.90;;;;;;5016541;28;20038;-86
2024/04/04 11:24:18;;;;;;;2.15;2.05;;;12.80;99.90;;;;;;5032506;28;20037;-85
2024/04/04 11:26:44;;;;;;;0.40;0.40;;;12.90;99.90;;;;;;5030409;28;20041;-84
2024/04/04 11:29:09;;;;;;;0.75;0.75;;;13.20;99.90;;;;;;5030559;28;20035;-83
2024/04/04 11:31:35;;;;;;;0.40;0.40;;;13.30;99.90;;;;;;5034173;28;20037;-85
2024/04/04 11:34:02;;;;;;;0.30;0.30;;;13.40;99.90;;;;;;5031079;28;20052;-84
2024/04/04 11:36:28;;;;;;;1.42;0.57;;;13.60;99.90;;;;;;5029784;28;20041;-81
2024/04/04 11:38:54;;;;;;;0.38;0.38;;;13.80;99.90;;;;;;5030424;28;20457;-85
2024/04/04 11:41:20;;;;;;;0.30;0.30;;;13.90;99.90;;;;;;5030493;28;20033;-85
2024/04/04 11:43:45;;;;;;;0.20;0.20;;;13.80;99.90;;;;;;5045024;28;20054;-85
2024/04/04 11:46:12;;;;;;;0.35;0.35;;;13.70;99.90;;;;;;5029600;28;20041;-85
2024/04/04 11:48:39;;;;;;;0.40;0.40;;;13.60;99.90;;;;;;5030685;28;20499;-85
2024/04/04 11:51:04;;;;;;;1.08;0.50;;;13.40;99.90;;;;;;5037893;28;20041;-84
2024/04/04 11:53:30;;;;;;;0.30;0.30;;;13.50;99.90;;;;;;5038570;28;20041;-84
2024/04/04 11:55:56;;;;;;;0.50;0.50;;;13.60;99.90;;;;;;5019011;28;20128;-86
2024/04/04 11:58:31;;;;;;;0.40;0.40;;;14.00;99.90;;;;;;5034181;28;20077;-83
2024/04/04 12:00:58;;;;;;;0.30;0.30;;;14.30;99.90;;;;;;5036809;28;20046;-87
2024/04/04 12:03:24;;;;;;;0.70;0.70;;;14.30;99.90;;;;;;5019007;28;20466;-84
2024/04/04 12:05:50;;;;;;;;;;;14.30;99.90;;;;;;5039392;28;20037;-85
2024/04/04 12:08:16;;;;;;;0.88;0.88;;;14.00;99.90;;;;;;5035359;28;19928;-85
2024/04/04 12:10:43;;;;;;;;;;;13.90;99.90;;;;;;5036671;28;20056;-83
2024/04/04 12:13:10;;;;;;;0.30;0.30;;;14.00;99.90;;;;;;5037496;28;19921;-84
2024/04/04 12:15:36;;;;;;;0.30;0.30;;;14.10;99.90;;;;;;5040340;28;20049;-83
2024/04/04 12:20:46;;;;;;;0.32;0.32;;;14.30;99.90;;;;;;5040978;28;20117;-78
2024/04/04 12:23:11;;;;;;;0.30;0.30;;;14.20;99.90;;;;;;5036142;28;20108;-79
2024/04/04 12:25:37;;;;;;;0.32;0.32;;;14.00;99.90;;;;;;5029743;28;20052;-79
2024/04/04 12:28:03;;;;;;;0.80;0.80;;;13.90;99.90;;;;;;5029451;28;20045;-79
2024/04/04 12:30:28;;;;;;;0.47;0.47;;;13.90;99.90;;;;;;5032946;28;20041;-79
2024/04/04 12:32:54;;;;;;;;;;;13.90;99.90;;;;;;5030674;28;20065;-80
2024/04/04 12:35:20;;;;;;;0.28;0.28;;;14.00;99.90;;;;;;5030097;28;20267;-77
2024/04/04 12:37:45;;;;;;;;;;;14.10;99.90;;;;;;5028493;28;20296;-79
2024/04/04 12:40:11;;;;;;;0.30;0.30;;;14.10;99.90;;;;;;5013693;28;19952;-79
2024/04/04 12:42:37;;;;;;;0.17;0.17;;;14.10;99.90;;;;;;5030862;28;20029;-79
2024/04/04 12:45:03;;;;;;;;;;;14.00;99.90;;;;;;5029624;28;20040;-80
2024/04/04 12:47:29;;;;;;;2.15;1.85;;;13.90;99.90;;;;;;5028147;28;19921;-80
2024/04/04 12:49:55;;;;;;;;;;;14.00;99.90;;;;;;5027491;28;20038;-80
2024/04/04 12:52:21;;;;;;;2.92;0.55;;;14.10;99.90;;;;;;5027109;28;20390;-79
2024/04/04 12:54:46;;;;;;;0.35;0.35;;;14.20;99.90;;;;;;5027849;28;20034;-78
2024/04/04 12:57:12;;;;;;;;;;;14.20;99.90;;;;;;5030653;28;20057;-80